sensor_id;sensor_type;location;lat;lon;timestamp;temperature;humidity
78184;DHT22;67442;44.570;18.610;2023-11-25T00:00:12;5.30;99.90
78184;DHT22;67442;44.570;18.610;2023-11-25T00:02:40;5.30;99.90
78184;DHT22;67442;44.570;18.610;2023-11-25T00:05:08;5.30;99.90
78184;DHT22;67442;44.570;18.610;2023-11-25T00:07:36;5.40;99.90
78184;DHT22;67442;44.570;18.610;2023-11-25T00:10:04;5.60;99.90
78184;DHT22;67442;44.570;18.610;2023-11-25T00:12:35;5.60;99.90
78184;DHT22;67442;44.570;18.610;2023-11-25T00:15:02;5.30;99.90
78184;DHT22;67442;44.570;18.610;2023-11-25T00:17:29;5.20;99.90
78184;DHT22;67442;44.570;18.610;2023-11-25T00:19:58;5.20;99.90
78184;DHT22;67442;44.570;18.610;2023-11-25T00:22:29;5.10;99.90
78184;DHT22;67442;44.570;18.610;2023-11-25T00:24:56;5.20;99.90
78184;DHT22;67442;44.570;18.610;2023-11-25T00:27:24;5.30;99.90
78184;DHT22;67442;44.570;18.610;2023-11-25T00:29:55;5.40;99.90
78184;DHT22;67442;44.570;18.610;2023-11-25T00:32:22;5.40;99.90
78184;DHT22;67442;44.570;18.610;2023-11-25T00:34:50;5.50;99.90
78184;DHT22;67442;44.570;18.610;2023-11-25T00:37:18;5.50;99.90
78184;DHT22;67442;44.570;18.610;2023-11-25T00:39:45;5.40;99.90
78184;DHT22;67442;44.570;18.610;2023-11-25T00:42:13;5.40;99.90
78184;DHT22;67442;44.570;18.610;2023-11-25T00:44:40;5.50;99.90
78184;DHT22;67442;44.570;18.610;2023-11-25T00:47:06;5.70;99.90
78184;DHT22;67442;44.570;18.610;2023-11-25T00:49:39;5.70;99.90
78184;DHT22;67442;44.570;18.610;2023-11-25T00:52:08;5.70;99.90
78184;DHT22;67442;44.570;18.610;2023-11-25T00:54:39;5.70;99.90
78184;DHT22;67442;44.570;18.610;2023-11-25T00:57:06;5.60;99.90
78184;DHT22;67442;44.570;18.610;2023-11-25T00:59:33;5.50;99.90
78184;DHT22;67442;44.570;18.610;2023-11-25T01:02:05;5.40;99.90
78184;DHT22;67442;44.570;18.610;2023-11-25T01:04:33;5.50;99.90
78184;DHT22;67442;44.570;18.610;2023-11-25T01:07:00;5.50;99.90
78184;DHT22;67442;44.570;18.610;2023-11-25T01:09:31;5.40;99.90
78184;DHT22;67442;44.570;18.610;2023-11-25T01:12:01;5.50;99.90
78184;DHT22;67442;44.570;18.610;2023-11-25T01:14:28;5.40;99.90
78184;DHT22;67442;44.570;18.610;2023-11-25T01:17:00;5.40;99.90
78184;DHT22;67442;44.570;18.610;2023-11-25T01:19:28;5.40;99.90
78184;DHT22;67442;44.570;18.610;2023-11-25T01:21:59;5.30;99.90
78184;DHT22;67442;44.570;18.610;2023-11-25T01:24:31;5.50;99.90
78184;DHT22;67442;44.570;18.610;2023-11-25T01:26:59;5.60;99.90
78184;DHT22;67442;44.570;18.610;2023-11-25T01:29:29;5.50;99.90
78184;DHT22;67442;44.570;18.610;2023-11-25T01:31:57;5.40;99.90
78184;DHT22;67442;44.570;18.610;2023-11-25T01:34:26;5.40;99.90
78184;DHT22;67442;44.570;18.610;2023-11-25T01:36:53;5.30;99.90
78184;DHT22;67442;44.570;18.610;2023-11-25T01:39:21;5.20;99.90
78184;DHT22;67442;44.570;18.610;2023-11-25T01:41:49;5.20;99.90
78184;DHT22;67442;44.570;18.610;2023-11-25T01:44:17;5.20;99.90
78184;DHT22;67442;44.570;18.610;2023-11-25T01:46:44;5.10;99.90
78184;DHT22;67442;44.570;18.610;2023-11-25T01:49:15;5.10;99.90
78184;DHT22;67442;44.570;18.610;2023-11-25T01:51:46;5.50;99.90
78184;DHT22;67442;44.570;18.610;2023-11-25T01:54:18;5.60;99.90
78184;DHT22;67442;44.570;18.610;2023-11-25T01:56:53;5.80;99.90
78184;DHT22;67442;44.570;18.610;2023-11-25T01:59:24;5.90;99.90
78184;DHT22;67442;44.570;18.610;2023-11-25T02:01:53;6.00;99.90
78184;DHT22;67442;44.570;18.610;2023-11-25T02:04:20;5.80;99.90
78184;DHT22;67442;44.570;18.610;2023-11-25T02:06:48;5.70;99.90
78184;DHT22;67442;44.570;18.610;2023-11-25T02:09:19;5.70;99.90
78184;DHT22;67442;44.570;18.610;2023-11-25T02:12:00;5.70;99.90
78184;DHT22;67442;44.570;18.610;2023-11-25T02:14:31;5.80;99.90
78184;DHT22;67442;44.570;18.610;2023-11-25T02:16:59;5.80;99.80
78184;DHT22;67442;44.570;18.610;2023-11-25T02:19:26;5.70;99.90
78184;DHT22;67442;44.570;18.610;2023-11-25T02:21:55;5.70;99.90
78184;DHT22;67442;44.570;18.610;2023-11-25T02:24:23;5.70;99.90
78184;DHT22;67442;44.570;18.610;2023-11-25T02:27:02;5.30;99.90
78184;DHT22;67442;44.570;18.610;2023-11-25T02:29:31;5.00;99.90
78184;DHT22;67442;44.570;18.610;2023-11-25T02:31:59;4.80;99.90
78184;DHT22;67442;44.570;18.610;2023-11-25T02:34:26;4.80;99.90
78184;DHT22;67442;44.570;18.610;2023-11-25T02:36:53;4.70;99.90
78184;DHT22;67442;44.570;18.610;2023-11-25T02:39:20;4.60;99.90
78184;DHT22;67442;44.570;18.610;2023-11-25T02:41:50;4.70;99.90
78184;DHT22;67442;44.570;18.610;2023-11-25T02:44:21;4.80;99.90
78184;DHT22;67442;44.570;18.610;2023-11-25T02:46:49;4.80;99.90
78184;DHT22;67442;44.570;18.610;2023-11-25T02:49:19;4.90;99.90
78184;DHT22;67442;44.570;18.610;2023-11-25T02:51:51;4.80;99.90
78184;DHT22;67442;44.570;18.610;2023-11-25T02:54:19;5.00;99.90
78184;DHT22;67442;44.570;18.610;2023-11-25T02:56:46;5.00;99.90
78184;DHT22;67442;44.570;18.610;2023-11-25T02:59:14;5.00;99.90
78184;DHT22;67442;44.570;18.610;2023-11-25T03:01:41;5.00;99.90
78184;DHT22;67442;44.570;18.610;2023-11-25T03:04:15;5.00;99.90
78184;DHT22;67442;44.570;18.610;2023-11-25T03:06:44;5.10;99.90
78184;DHT22;67442;44.570;18.610;2023-11-25T03:09:12;5.00;99.90
78184;DHT22;67442;44.570;18.610;2023-11-25T03:11:44;5.00;99.90
78184;DHT22;67442;44.570;18.610;2023-11-25T03:14:14;5.10;99.90
78184;DHT22;67442;44.570;18.610;2023-11-25T03:16:46;5.20;99.90
78184;DHT22;67442;44.570;18.610;2023-11-25T03:19:18;5.50;99.90
78184;DHT22;67442;44.570;18.610;2023-11-25T03:21:45;5.60;99.90
78184;DHT22;67442;44.570;18.610;2023-11-25T03:24:13;5.40;99.90
78184;DHT22;67442;44.570;18.610;2023-11-25T03:26:42;5.10;99.90
78184;DHT22;67442;44.570;18.610;2023-11-25T03:29:10;4.90;99.90
78184;DHT22;67442;44.570;18.610;2023-11-25T03:31:43;5.00;99.90
78184;DHT22;67442;44.570;18.610;2023-11-25T03:34:10;5.30;99.90
78184;DHT22;67442;44.570;18.610;2023-11-25T03:36:38;5.40;99.90
78184;DHT22;67442;44.570;18.610;2023-11-25T03:39:05;5.40;99.90
78184;DHT22;67442;44.570;18.610;2023-11-25T03:41:38;5.60;99.90
78184;DHT22;67442;44.570;18.610;2023-11-25T03:44:05;5.50;99.90
78184;DHT22;67442;44.570;18.610;2023-11-25T03:46:33;5.30;99.90
78184;DHT22;67442;44.570;18.610;2023-11-25T03:49:00;5.10;99.90
78184;DHT22;67442;44.570;18.610;2023-11-25T03:51:28;4.90;99.90
78184;DHT22;67442;44.570;18.610;2023-11-25T03:53:55;5.00;99.90
78184;DHT22;67442;44.570;18.610;2023-11-25T03:56:23;5.00;99.90
78184;DHT22;67442;44.570;18.610;2023-11-25T03:58:50;5.00;99.90
78184;DHT22;67442;44.570;18.610;2023-11-25T04:01:23;4.80;99.90
78184;DHT22;67442;44.570;18.610;2023-11-25T04:03:51;4.50;99.90
78184;DHT22;67442;44.570;18.610;2023-11-25T04:06:19;4.30;99.90
78184;DHT22;67442;44.570;18.610;2023-11-25T04:08:46;4.00;99.90
78184;DHT22;67442;44.570;18.610;2023-11-25T04:11:14;3.80;99.90
78184;DHT22;67442;44.570;18.610;2023-11-25T04:13:47;3.60;99.90
78184;DHT22;67442;44.570;18.610;2023-11-25T04:16:14;3.70;99.90
78184;DHT22;67442;44.570;18.610;2023-11-25T04:18:41;3.70;99.90
78184;DHT22;67442;44.570;18.610;2023-11-25T04:21:09;3.80;99.90
78184;DHT22;67442;44.570;18.610;2023-11-25T04:23:36;3.70;99.90
78184;DHT22;67442;44.570;18.610;2023-11-25T04:26:05;3.70;99.90
78184;DHT22;67442;44.570;18.610;2023-11-25T04:28:33;3.60;99.90
78184;DHT22;67442;44.570;18.610;2023-11-25T04:31:04;3.60;99.90
78184;DHT22;67442;44.570;18.610;2023-11-25T04:33:32;3.60;99.90
78184;DHT22;67442;44.570;18.610;2023-11-25T04:36:01;3.50;99.90
78184;DHT22;67442;44.570;18.610;2023-11-25T04:38:29;3.40;99.90
78184;DHT22;67442;44.570;18.610;2023-11-25T04:40:57;3.30;99.90
78184;DHT22;67442;44.570;18.610;2023-11-25T04:43:24;3.20;99.90
78184;DHT22;67442;44.570;18.610;2023-11-25T04:45:52;3.10;99.90
78184;DHT22;67442;44.570;18.610;2023-11-25T04:48:20;3.10;99.90
78184;DHT22;67442;44.570;18.610;2023-11-25T04:50:47;3.10;99.90
78184;DHT22;67442;44.570;18.610;2023-11-25T04:53:15;3.10;99.90
78184;DHT22;67442;44.570;18.610;2023-11-25T04:55:42;3.00;99.90
78184;DHT22;67442;44.570;18.610;2023-11-25T04:58:14;3.10;99.90
78184;DHT22;67442;44.570;18.610;2023-11-25T05:00:41;3.10;99.90
78184;DHT22;67442;44.570;18.610;2023-11-25T05:03:09;3.00;99.90
78184;DHT22;67442;44.570;18.610;2023-11-25T05:05:37;2.80;99.90
78184;DHT22;67442;44.570;18.610;2023-11-25T05:08:05;3.10;99.90
78184;DHT22;67442;44.570;18.610;2023-11-25T05:10:34;3.30;99.90
78184;DHT22;67442;44.570;18.610;2023-11-25T05:13:05;3.50;99.90
78184;DHT22;67442;44.570;18.610;2023-11-25T05:15:33;3.40;99.90
78184;DHT22;67442;44.570;18.610;2023-11-25T05:18:04;3.20;99.90
78184;DHT22;67442;44.570;18.610;2023-11-25T05:20:32;3.20;99.90
78184;DHT22;67442;44.570;18.610;2023-11-25T05:23:00;3.20;99.90
78184;DHT22;67442;44.570;18.610;2023-11-25T05:25:27;3.10;99.90
78184;DHT22;67442;44.570;18.610;2023-11-25T05:27:54;3.10;99.90
78184;DHT22;67442;44.570;18.610;2023-11-25T05:30:22;3.10;99.90
78184;DHT22;67442;44.570;18.610;2023-11-25T05:32:49;3.00;99.90
78184;DHT22;67442;44.570;18.610;2023-11-25T05:35:21;3.00;99.90
78184;DHT22;67442;44.570;18.610;2023-11-25T05:37:52;3.00;99.90
78184;DHT22;67442;44.570;18.610;2023-11-25T05:40:19;3.00;99.90
78184;DHT22;67442;44.570;18.610;2023-11-25T05:42:46;3.00;99.90
78184;DHT22;67442;44.570;18.610;2023-11-25T05:45:19;3.10;99.90
78184;DHT22;67442;44.570;18.610;2023-11-25T05:47:53;3.30;99.90
78184;DHT22;67442;44.570;18.610;2023-11-25T05:50:21;3.40;99.90
78184;DHT22;67442;44.570;18.610;2023-11-25T05:52:49;3.50;99.90
78184;DHT22;67442;44.570;18.610;2023-11-25T05:55:19;3.50;99.90
78184;DHT22;67442;44.570;18.610;2023-11-25T05:57:51;3.40;99.90
78184;DHT22;67442;44.570;18.610;2023-11-25T06:00:19;3.60;99.90
78184;DHT22;67442;44.570;18.610;2023-11-25T06:02:52;3.60;99.90
78184;DHT22;67442;44.570;18.610;2023-11-25T06:05:18;3.70;99.90
78184;DHT22;67442;44.570;18.610;2023-11-25T06:07:45;3.50;99.50
78184;DHT22;67442;44.570;18.610;2023-11-25T06:10:17;3.50;99.60
78184;DHT22;67442;44.570;18.610;2023-11-25T06:12:45;3.60;99.30
78184;DHT22;67442;44.570;18.610;2023-11-25T06:15:17;3.70;99.20
78184;DHT22;67442;44.570;18.610;2023-11-25T06:17:45;3.60;99.00
78184;DHT22;67442;44.570;18.610;2023-11-25T06:20:16;3.30;99.40
78184;DHT22;67442;44.570;18.610;2023-11-25T06:22:44;3.20;99.90
78184;DHT22;67442;44.570;18.610;2023-11-25T06:25:11;3.30;99.90
78184;DHT22;67442;44.570;18.610;2023-11-25T06:27:40;3.20;99.90
78184;DHT22;67442;44.570;18.610;2023-11-25T06:30:13;3.20;99.90
78184;DHT22;67442;44.570;18.610;2023-11-25T06:32:41;3.10;99.90
78184;DHT22;67442;44.570;18.610;2023-11-25T06:35:09;3.00;99.90
78184;DHT22;67442;44.570;18.610;2023-11-25T06:37:38;3.10;99.90
78184;DHT22;67442;44.570;18.610;2023-11-25T06:40:09;3.40;99.90
78184;DHT22;67442;44.570;18.610;2023-11-25T06:42:41;3.60;99.90
78184;DHT22;67442;44.570;18.610;2023-11-25T06:45:13;3.60;99.90
78184;DHT22;67442;44.570;18.610;2023-11-25T06:47:41;3.60;99.90
78184;DHT22;67442;44.570;18.610;2023-11-25T06:50:13;3.60;99.90
78184;DHT22;67442;44.570;18.610;2023-11-25T06:52:44;3.50;99.90
78184;DHT22;67442;44.570;18.610;2023-11-25T06:55:11;3.40;99.90
78184;DHT22;67442;44.570;18.610;2023-11-25T06:57:39;3.40;99.90
78184;DHT22;67442;44.570;18.610;2023-11-25T07:00:12;3.50;99.90
78184;DHT22;67442;44.570;18.610;2023-11-25T07:02:40;3.30;99.90
78184;DHT22;67442;44.570;18.610;2023-11-25T07:05:10;3.20;99.90
78184;DHT22;67442;44.570;18.610;2023-11-25T07:07:41;3.20;99.90
78184;DHT22;67442;44.570;18.610;2023-11-25T07:10:12;3.20;99.90
78184;DHT22;67442;44.570;18.610;2023-11-25T07:12:43;3.40;99.90
78184;DHT22;67442;44.570;18.610;2023-11-25T07:15:11;3.50;99.90
78184;DHT22;67442;44.570;18.610;2023-11-25T07:17:43;3.50;99.90
78184;DHT22;67442;44.570;18.610;2023-11-25T07:20:10;3.50;99.90
78184;DHT22;67442;44.570;18.610;2023-11-25T07:22:39;3.30;99.90
78184;DHT22;67442;44.570;18.610;2023-11-25T07:25:11;3.40;99.90
78184;DHT22;67442;44.570;18.610;2023-11-25T07:27:42;3.60;99.90
78184;DHT22;67442;44.570;18.610;2023-11-25T07:30:14;3.50;99.90
78184;DHT22;67442;44.570;18.610;2023-11-25T07:32:42;3.60;99.90
78184;DHT22;67442;44.570;18.610;2023-11-25T07:35:10;3.60;99.90
78184;DHT22;67442;44.570;18.610;2023-11-25T07:37:38;3.60;99.90
78184;DHT22;67442;44.570;18.610;2023-11-25T07:40:06;3.70;99.90
78184;DHT22;67442;44.570;18.610;2023-11-25T07:42:41;3.80;99.90
78184;DHT22;67442;44.570;18.610;2023-11-25T07:45:16;3.90;99.90
78184;DHT22;67442;44.570;18.610;2023-11-25T07:47:43;4.10;99.90
78184;DHT22;67442;44.570;18.610;2023-11-25T07:50:11;4.00;99.90
78184;DHT22;67442;44.570;18.610;2023-11-25T07:52:38;4.10;99.90
78184;DHT22;67442;44.570;18.610;2023-11-25T07:55:05;4.20;99.90
78184;DHT22;67442;44.570;18.610;2023-11-25T07:57:35;4.20;99.90
78184;DHT22;67442;44.570;18.610;2023-11-25T08:00:08;4.20;99.90
78184;DHT22;67442;44.570;18.610;2023-11-25T08:02:44;4.30;99.90
78184;DHT22;67442;44.570;18.610;2023-11-25T08:05:14;4.40;99.90
78184;DHT22;67442;44.570;18.610;2023-11-25T08:08:07;4.60;99.90
78184;DHT22;67442;44.570;18.610;2023-11-25T08:10:34;4.80;98.80
78184;DHT22;67442;44.570;18.610;2023-11-25T08:13:01;4.50;99.80
78184;DHT22;67442;44.570;18.610;2023-11-25T08:15:28;4.40;99.30
78184;DHT22;67442;44.570;18.610;2023-11-25T08:18:00;4.60;99.30
78184;DHT22;67442;44.570;18.610;2023-11-25T08:20:28;4.50;99.40
78184;DHT22;67442;44.570;18.610;2023-11-25T08:22:55;4.40;98.90
78184;DHT22;67442;44.570;18.610;2023-11-25T08:25:22;4.70;99.50
78184;DHT22;67442;44.570;18.610;2023-11-25T08:27:50;4.80;99.80
78184;DHT22;67442;44.570;18.610;2023-11-25T08:30:18;4.70;99.10
78184;DHT22;67442;44.570;18.610;2023-11-25T08:32:47;4.90;98.60
78184;DHT22;67442;44.570;18.610;2023-11-25T08:35:15;5.00;98.90
78184;DHT22;67442;44.570;18.610;2023-11-25T08:37:43;5.00;98.00
78184;DHT22;67442;44.570;18.610;2023-11-25T08:40:17;5.20;98.40
78184;DHT22;67442;44.570;18.610;2023-11-25T08:42:47;5.30;97.90
78184;DHT22;67442;44.570;18.610;2023-11-25T08:45:16;5.30;97.60
78184;DHT22;67442;44.570;18.610;2023-11-25T08:47:48;5.30;97.00
78184;DHT22;67442;44.570;18.610;2023-11-25T08:50:16;5.10;97.50
78184;DHT22;67442;44.570;18.610;2023-11-25T08:52:44;5.30;97.80
78184;DHT22;67442;44.570;18.610;2023-11-25T08:55:17;5.00;97.90
78184;DHT22;67442;44.570;18.610;2023-11-25T08:57:46;5.00;97.80
78184;DHT22;67442;44.570;18.610;2023-11-25T09:00:14;5.00;98.40
78184;DHT22;67442;44.570;18.610;2023-11-25T09:02:49;5.20;97.80
78184;DHT22;67442;44.570;18.610;2023-11-25T09:05:17;5.00;97.60
78184;DHT22;67442;44.570;18.610;2023-11-25T09:07:49;5.30;97.60
78184;DHT22;67442;44.570;18.610;2023-11-25T09:10:18;5.20;97.70
78184;DHT22;67442;44.570;18.610;2023-11-25T09:12:46;5.20;98.70
78184;DHT22;67442;44.570;18.610;2023-11-25T09:15:14;5.40;97.20
78184;DHT22;67442;44.570;18.610;2023-11-25T09:17:40;5.30;98.60
78184;DHT22;67442;44.570;18.610;2023-11-25T09:20:14;5.60;97.20
78184;DHT22;67442;44.570;18.610;2023-11-25T09:22:43;6.00;95.00
78184;DHT22;67442;44.570;18.610;2023-11-25T09:25:11;6.10;94.60
78184;DHT22;67442;44.570;18.610;2023-11-25T09:27:42;6.10;95.60
78184;DHT22;67442;44.570;18.610;2023-11-25T09:30:13;6.10;96.50
78184;DHT22;67442;44.570;18.610;2023-11-25T09:32:41;6.60;95.90
78184;DHT22;67442;44.570;18.610;2023-11-25T09:35:10;6.70;93.70
78184;DHT22;67442;44.570;18.610;2023-11-25T09:37:42;6.40;93.50
78184;DHT22;67442;44.570;18.610;2023-11-25T09:40:11;6.40;94.00
78184;DHT22;67442;44.570;18.610;2023-11-25T09:42:44;6.20;94.50
78184;DHT22;67442;44.570;18.610;2023-11-25T09:45:11;6.00;94.60
78184;DHT22;67442;44.570;18.610;2023-11-25T09:47:41;5.90;94.70
78184;DHT22;67442;44.570;18.610;2023-11-25T09:50:09;5.90;94.70
78184;DHT22;67442;44.570;18.610;2023-11-25T09:55:10;5.50;95.50
78184;DHT22;67442;44.570;18.610;2023-11-25T09:57:39;5.80;95.50
78184;DHT22;67442;44.570;18.610;2023-11-25T10:00:08;5.80;94.00
78184;DHT22;67442;44.570;18.610;2023-11-25T10:02:38;5.70;95.20
78184;DHT22;67442;44.570;18.610;2023-11-25T10:05:10;5.60;95.70
78184;DHT22;67442;44.570;18.610;2023-11-25T10:07:38;5.80;94.80
78184;DHT22;67442;44.570;18.610;2023-11-25T10:10:11;5.80;95.10
78184;DHT22;67442;44.570;18.610;2023-11-25T10:12:42;5.90;94.40
78184;DHT22;67442;44.570;18.610;2023-11-25T10:15:13;6.40;94.10
78184;DHT22;67442;44.570;18.610;2023-11-25T10:17:42;6.20;94.30
78184;DHT22;67442;44.570;18.610;2023-11-25T10:20:11;6.20;94.90
78184;DHT22;67442;44.570;18.610;2023-11-25T10:22:50;6.70;93.20
78184;DHT22;67442;44.570;18.610;2023-11-25T10:25:21;6.60;92.70
78184;DHT22;67442;44.570;18.610;2023-11-25T10:27:52;6.60;92.70
78184;DHT22;67442;44.570;18.610;2023-11-25T10:30:21;6.60;93.60
78184;DHT22;67442;44.570;18.610;2023-11-25T10:32:49;6.40;94.80
78184;DHT22;67442;44.570;18.610;2023-11-25T10:35:22;6.40;94.50
78184;DHT22;67442;44.570;18.610;2023-11-25T10:37:53;6.60;94.20
78184;DHT22;67442;44.570;18.610;2023-11-25T10:40:24;6.50;93.20
78184;DHT22;67442;44.570;18.610;2023-11-25T10:42:54;6.70;93.40
78184;DHT22;67442;44.570;18.610;2023-11-25T10:45:23;6.80;92.80
78184;DHT22;67442;44.570;18.610;2023-11-25T10:47:53;7.00;91.00
78184;DHT22;67442;44.570;18.610;2023-11-25T10:50:22;7.10;91.90
78184;DHT22;67442;44.570;18.610;2023-11-25T10:52:57;6.60;93.40
78184;DHT22;67442;44.570;18.610;2023-11-25T10:55:27;6.30;94.30
78184;DHT22;67442;44.570;18.610;2023-11-25T10:57:56;6.40;93.30
78184;DHT22;67442;44.570;18.610;2023-11-25T11:00:31;6.30;94.00
78184;DHT22;67442;44.570;18.610;2023-11-25T11:03:06;6.40;93.60
78184;DHT22;67442;44.570;18.610;2023-11-25T11:05:53;6.50;93.00
78184;DHT22;67442;44.570;18.610;2023-11-25T11:08:30;6.40;93.50
78184;DHT22;67442;44.570;18.610;2023-11-25T11:11:14;6.40;94.90
78184;DHT22;67442;44.570;18.610;2023-11-25T11:13:50;6.60;94.40
78184;DHT22;67442;44.570;18.610;2023-11-25T11:16:35;6.60;93.80
78184;DHT22;67442;44.570;18.610;2023-11-25T11:19:05;6.30;94.50
78184;DHT22;67442;44.570;18.610;2023-11-25T11:22:02;6.30;94.80
78184;DHT22;67442;44.570;18.610;2023-11-25T11:27:35;6.30;95.30
78184;DHT22;67442;44.570;18.610;2023-11-25T11:30:44;6.30;94.40
78184;DHT22;67442;44.570;18.610;2023-11-25T11:33:19;6.10;95.20
78184;DHT22;67442;44.570;18.610;2023-11-25T11:35:46;6.40;93.70
78184;DHT22;67442;44.570;18.610;2023-11-25T11:38:29;6.50;91.70
78184;DHT22;67442;44.570;18.610;2023-11-25T11:46:30;6.60;90.90
78184;DHT22;67442;44.570;18.610;2023-11-25T11:49:08;6.70;91.70
78184;DHT22;67442;44.570;18.610;2023-11-25T11:51:35;6.70;91.00
78184;DHT22;67442;44.570;18.610;2023-11-25T11:57:04;6.70;87.00
78184;DHT22;67442;44.570;18.610;2023-11-25T12:02:24;6.20;90.00
78184;DHT22;67442;44.570;18.610;2023-11-25T12:04:52;6.40;86.50
78184;DHT22;67442;44.570;18.610;2023-11-25T12:07:19;6.50;86.70
78184;DHT22;67442;44.570;18.610;2023-11-25T12:09:47;6.50;87.70
78184;DHT22;67442;44.570;18.610;2023-11-25T12:12:15;6.20;88.60
78184;DHT22;67442;44.570;18.610;2023-11-25T12:14:41;6.20;88.50
78184;DHT22;67442;44.570;18.610;2023-11-25T12:17:09;6.50;85.70
78184;DHT22;67442;44.570;18.610;2023-11-25T12:19:36;6.50;85.60
78184;DHT22;67442;44.570;18.610;2023-11-25T12:22:27;6.50;83.90
78184;DHT22;67442;44.570;18.610;2023-11-25T12:24:55;6.20;85.80
78184;DHT22;67442;44.570;18.610;2023-11-25T12:27:27;6.20;86.60
78184;DHT22;67442;44.570;18.610;2023-11-25T12:29:55;6.20;90.10
78184;DHT22;67442;44.570;18.610;2023-11-25T12:32:26;6.40;84.50
78184;DHT22;67442;44.570;18.610;2023-11-25T12:34:54;6.50;85.40
78184;DHT22;67442;44.570;18.610;2023-11-25T12:37:25;6.10;86.20
78184;DHT22;67442;44.570;18.610;2023-11-25T12:39:58;5.80;87.10
78184;DHT22;67442;44.570;18.610;2023-11-25T12:42:41;5.80;87.10
78184;DHT22;67442;44.570;18.610;2023-11-25T12:45:09;5.40;89.20
78184;DHT22;67442;44.570;18.610;2023-11-25T12:47:47;5.60;90.00
78184;DHT22;67442;44.570;18.610;2023-11-25T12:50:18;5.50;90.40
78184;DHT22;67442;44.570;18.610;2023-11-25T12:52:45;5.70;89.60
78184;DHT22;67442;44.570;18.610;2023-11-25T12:55:41;5.90;89.40
78184;DHT22;67442;44.570;18.610;2023-11-25T12:58:14;5.90;91.20
78184;DHT22;67442;44.570;18.610;2023-11-25T13:00:50;5.80;92.30
78184;DHT22;67442;44.570;18.610;2023-11-25T13:03:40;5.70;92.20
78184;DHT22;67442;44.570;18.610;2023-11-25T13:06:08;5.40;94.50
78184;DHT22;67442;44.570;18.610;2023-11-25T13:08:37;5.20;95.10
78184;DHT22;67442;44.570;18.610;2023-11-25T13:11:07;5.00;95.20
78184;DHT22;67442;44.570;18.610;2023-11-25T13:13:41;5.00;95.50
78184;DHT22;67442;44.570;18.610;2023-11-25T13:16:10;5.30;94.80
78184;DHT22;67442;44.570;18.610;2023-11-25T13:18:47;5.10;93.00
78184;DHT22;67442;44.570;18.610;2023-11-25T13:21:17;4.90;94.70
78184;DHT22;67442;44.570;18.610;2023-11-25T13:23:49;5.00;93.80
78184;DHT22;67442;44.570;18.610;2023-11-25T13:26:17;5.10;94.20
78184;DHT22;67442;44.570;18.610;2023-11-25T13:28:44;4.90;94.60
78184;DHT22;67442;44.570;18.610;2023-11-25T13:31:11;4.90;94.30
78184;DHT22;67442;44.570;18.610;2023-11-25T13:33:38;5.00;94.30
78184;DHT22;67442;44.570;18.610;2023-11-25T13:36:06;5.10;94.50
78184;DHT22;67442;44.570;18.610;2023-11-25T13:38:34;5.00;93.70
78184;DHT22;67442;44.570;18.610;2023-11-25T13:41:07;4.60;94.50
78184;DHT22;67442;44.570;18.610;2023-11-25T13:43:35;4.80;93.50
78184;DHT22;67442;44.570;18.610;2023-11-25T13:46:02;4.60;94.10
78184;DHT22;67442;44.570;18.610;2023-11-25T13:48:30;4.60;93.90
78184;DHT22;67442;44.570;18.610;2023-11-25T13:50:57;4.40;94.10
78184;DHT22;67442;44.570;18.610;2023-11-25T13:53:25;4.40;95.70
78184;DHT22;67442;44.570;18.610;2023-11-25T13:55:53;4.50;95.10
78184;DHT22;67442;44.570;18.610;2023-11-25T13:58:21;4.50;95.20
78184;DHT22;67442;44.570;18.610;2023-11-25T14:00:49;4.30;95.40
78184;DHT22;67442;44.570;18.610;2023-11-25T14:03:20;4.60;94.80
78184;DHT22;67442;44.570;18.610;2023-11-25T14:05:51;4.40;94.00
78184;DHT22;67442;44.570;18.610;2023-11-25T14:08:24;4.50;93.30
78184;DHT22;67442;44.570;18.610;2023-11-25T14:10:55;4.30;94.90
78184;DHT22;67442;44.570;18.610;2023-11-25T14:13:22;4.30;94.00
78184;DHT22;67442;44.570;18.610;2023-11-25T14:15:50;4.20;94.10
78184;DHT22;67442;44.570;18.610;2023-11-25T14:18:19;4.20;93.30
78184;DHT22;67442;44.570;18.610;2023-11-25T14:20:46;4.10;93.60
78184;DHT22;67442;44.570;18.610;2023-11-25T14:23:16;4.10;94.30
78184;DHT22;67442;44.570;18.610;2023-11-25T14:25:45;3.90;94.40
78184;DHT22;67442;44.570;18.610;2023-11-25T14:28:13;4.00;94.70
78184;DHT22;67442;44.570;18.610;2023-11-25T14:30:40;3.90;95.20
78184;DHT22;67442;44.570;18.610;2023-11-25T14:33:08;4.00;95.00
78184;DHT22;67442;44.570;18.610;2023-11-25T14:35:35;4.10;95.10
78184;DHT22;67442;44.570;18.610;2023-11-25T14:38:07;4.20;94.00
78184;DHT22;67442;44.570;18.610;2023-11-25T14:40:34;4.10;94.00
78184;DHT22;67442;44.570;18.610;2023-11-25T14:43:06;4.10;94.10
78184;DHT22;67442;44.570;18.610;2023-11-25T14:45:36;4.10;93.50
78184;DHT22;67442;44.570;18.610;2023-11-25T14:48:08;4.00;93.80
78184;DHT22;67442;44.570;18.610;2023-11-25T14:50:37;3.90;95.00
78184;DHT22;67442;44.570;18.610;2023-11-25T14:53:07;3.80;94.20
78184;DHT22;67442;44.570;18.610;2023-11-25T14:55:38;3.70;94.70
78184;DHT22;67442;44.570;18.610;2023-11-25T14:58:07;3.60;94.60
78184;DHT22;67442;44.570;18.610;2023-11-25T15:00:35;3.50;95.20
78184;DHT22;67442;44.570;18.610;2023-11-25T15:03:09;3.50;94.90
78184;DHT22;67442;44.570;18.610;2023-11-25T15:05:37;3.40;94.70
78184;DHT22;67442;44.570;18.610;2023-11-25T15:08:05;3.50;94.10
78184;DHT22;67442;44.570;18.610;2023-11-25T15:10:36;3.40;94.60
78184;DHT22;67442;44.570;18.610;2023-11-25T15:13:04;3.50;94.00
78184;DHT22;67442;44.570;18.610;2023-11-25T15:15:35;3.50;93.30
78184;DHT22;67442;44.570;18.610;2023-11-25T15:18:06;3.40;94.50
78184;DHT22;67442;44.570;18.610;2023-11-25T15:20:36;3.50;93.60
78184;DHT22;67442;44.570;18.610;2023-11-25T15:23:07;3.50;92.60
78184;DHT22;67442;44.570;18.610;2023-11-25T15:25:35;3.50;92.50
78184;DHT22;67442;44.570;18.610;2023-11-25T15:28:03;3.50;93.20
78184;DHT22;67442;44.570;18.610;2023-11-25T15:30:35;3.40;93.80
78184;DHT22;67442;44.570;18.610;2023-11-25T15:33:06;3.40;92.80
78184;DHT22;67442;44.570;18.610;2023-11-25T15:35:33;3.40;92.90
78184;DHT22;67442;44.570;18.610;2023-11-25T15:38:04;3.30;93.00
78184;DHT22;67442;44.570;18.610;2023-11-25T15:40:32;3.30;92.90
78184;DHT22;67442;44.570;18.610;2023-11-25T15:43:05;3.20;92.70
78184;DHT22;67442;44.570;18.610;2023-11-25T15:45:32;3.30;92.30
78184;DHT22;67442;44.570;18.610;2023-11-25T15:48:04;3.30;92.50
78184;DHT22;67442;44.570;18.610;2023-11-25T15:50:32;3.30;92.70
78184;DHT22;67442;44.570;18.610;2023-11-25T15:53:00;3.30;92.50
78184;DHT22;67442;44.570;18.610;2023-11-25T15:55:28;3.30;92.50
78184;DHT22;67442;44.570;18.610;2023-11-25T15:57:56;3.30;91.70
78184;DHT22;67442;44.570;18.610;2023-11-25T16:00:27;3.30;91.80
78184;DHT22;67442;44.570;18.610;2023-11-25T16:02:58;3.30;90.80